createdAt,value
2023-04-23T00:01:28.394Z,3.80
2023-04-23T00:03:59.166Z,3.70
2023-04-23T00:06:28.007Z,4.28
2023-04-23T00:08:56.313Z,4.25
2023-04-23T00:11:24.976Z,4.20
2023-04-23T00:13:53.719Z,4.28
2023-04-23T00:16:24.696Z,3.70
2023-04-23T00:18:52.872Z,4.15
2023-04-23T00:21:20.983Z,3.70
2023-04-23T00:23:49.045Z,3.40
2023-04-23T00:26:18.549Z,4.28
2023-04-23T00:28:46.674Z,4.70
2023-04-23T00:31:14.787Z,5.32
2023-04-23T00:33:44.364Z,4.78
2023-04-23T00:36:12.410Z,4.78
2023-04-23T00:38:40.519Z,5.07
2023-04-23T00:41:09.249Z,4.68
2023-04-23T00:43:37.759Z,4.90
2023-04-23T00:46:07.003Z,4.30
2023-04-23T00:48:36.052Z,5.72
2023-04-23T00:51:07.542Z,4.90
2023-04-23T00:53:35.809Z,4.78
2023-04-23T00:56:06.669Z,4.72
2023-04-23T00:58:35.599Z,3.80
2023-04-23T01:01:04.827Z,5.22
2023-04-23T01:03:33.921Z,4.53
2023-04-23T01:06:02.347Z,5.10
2023-04-23T01:08:33.477Z,4.35
2023-04-23T01:11:03.936Z,5.75
2023-04-23T01:13:31.961Z,4.43
2023-04-23T01:16:00.191Z,5.03
2023-04-23T01:18:29.746Z,4.20
2023-04-23T01:20:57.867Z,4.75
2023-04-23T01:23:27.792Z,4.78
2023-04-23T01:25:56.430Z,5.03
2023-04-23T01:28:24.809Z,5.30
2023-04-23T01:30:53.580Z,5.47
2023-04-23T01:33:21.976Z,4.80
2023-04-23T01:35:51.365Z,5.40
2023-04-23T01:38:22.165Z,4.70
2023-04-23T01:40:51.546Z,5.25
2023-04-23T01:43:20.100Z,5.40
2023-04-23T01:45:48.211Z,5.20
2023-04-23T01:48:16.598Z,5.15
2023-04-23T01:50:45.210Z,5.03
2023-04-23T01:53:13.237Z,4.43
2023-04-23T01:55:42.377Z,4.50
2023-04-23T01:58:11.830Z,3.83
2023-04-23T02:00:39.894Z,3.80
2023-04-23T02:03:08.242Z,4.00
2023-04-23T02:05:37.307Z,4.18
2023-04-23T02:08:05.703Z,5.13
2023-04-23T02:10:34.029Z,4.97
2023-04-23T02:13:03.336Z,5.28
2023-04-23T02:15:32.993Z,4.80
2023-04-23T02:18:01.176Z,5.13
2023-04-23T02:20:29.326Z,4.68
2023-04-23T02:22:57.531Z,4.75
2023-04-23T02:25:25.658Z,4.10
2023-04-23T02:27:53.731Z,4.40
2023-04-23T02:30:22.933Z,4.65
2023-04-23T02:32:52.772Z,3.90
2023-04-23T02:35:21.346Z,4.70
2023-04-23T02:37:49.358Z,4.68
2023-04-23T02:40:17.466Z,4.25
2023-04-23T02:42:45.538Z,4.90
2023-04-23T02:45:13.559Z,4.20
2023-04-23T02:47:41.905Z,4.53
2023-04-23T02:50:12.023Z,4.30
2023-04-23T02:52:40.121Z,5.15
2023-04-23T02:55:09.808Z,4.65
2023-04-23T02:57:39.688Z,4.15
2023-04-23T03:00:09.385Z,4.85
2023-04-23T03:02:37.576Z,3.83
2023-04-23T03:05:07.375Z,3.85
2023-04-23T03:07:36.830Z,4.60
2023-04-23T03:10:05.639Z,4.60
2023-04-23T03:12:33.668Z,4.78
2023-04-23T03:15:01.887Z,4.80
2023-04-23T03:17:30.009Z,4.80
2023-04-23T03:19:58.151Z,5.20
2023-04-23T03:22:26.253Z,4.90
2023-04-23T03:24:55.629Z,5.50
2023-04-23T03:27:23.705Z,4.85
2023-04-23T03:29:51.759Z,5.18
2023-04-23T03:32:19.774Z,4.50
2023-04-23T03:34:47.881Z,4.55
2023-04-23T03:37:16.010Z,4.75
2023-04-23T03:39:44.040Z,4.90
2023-04-23T03:42:13.437Z,4.55
2023-04-23T03:44:41.757Z,4.57
2023-04-23T03:47:09.950Z,4.40
2023-04-23T03:49:38.316Z,4.68
2023-04-23T03:52:06.339Z,4.68
2023-04-23T03:54:34.371Z,4.40
2023-04-23T03:57:02.629Z,3.67
2023-04-23T03:59:32.087Z,4.28
2023-04-23T04:02:00.223Z,4.82
2023-04-23T04:04:28.649Z,4.97
2023-04-23T04:06:56.992Z,5.00
2023-04-23T04:09:25.144Z,6.05
2023-04-23T04:11:53.997Z,5.03
2023-04-23T04:14:23.912Z,4.95
2023-04-23T04:16:53.361Z,5.68
2023-04-23T04:19:21.887Z,4.88
2023-04-23T04:21:49.943Z,4.85
2023-04-23T04:24:18.318Z,4.88
2023-04-23T04:26:47.733Z,4.15
2023-04-23T04:29:15.993Z,4.90
2023-04-23T04:31:44.207Z,4.93
2023-04-23T04:34:14.981Z,4.28
2023-04-23T04:36:43.410Z,4.28
2023-04-23T04:39:13.670Z,4.10
2023-04-23T04:41:42.920Z,4.72
2023-04-23T04:44:10.935Z,4.68
2023-04-23T04:46:40.732Z,4.25
2023-04-23T04:49:09.588Z,4.50
2023-04-23T04:51:40.718Z,4.47
2023-04-23T04:54:09.411Z,4.55
2023-04-23T04:56:37.543Z,4.60
2023-04-23T04:59:05.609Z,5.22
2023-04-23T05:01:35.182Z,4.97
2023-04-23T05:04:04.068Z,4.43
2023-04-23T05:06:32.601Z,4.60
2023-04-23T05:09:02.147Z,4.70
2023-04-23T05:11:30.706Z,4.82
2023-04-23T05:13:58.956Z,5.55
2023-04-23T05:16:27.110Z,4.93
2023-04-23T05:18:55.152Z,5.75
2023-04-23T05:21:23.497Z,5.05
2023-04-23T05:23:51.559Z,5.05
2023-04-23T05:26:21.097Z,4.85
2023-04-23T05:28:49.150Z,4.95
2023-04-23T05:31:17.250Z,4.75
2023-04-23T05:33:50.466Z,4.90
2023-04-23T05:36:19.189Z,4.95
2023-04-23T05:38:48.804Z,4.88
2023-04-23T05:41:17.368Z,4.93
2023-04-23T05:43:46.824Z,4.75
2023-04-23T05:46:14.900Z,4.97
2023-04-23T05:48:42.997Z,5.03
2023-04-23T05:51:11.099Z,5.30
2023-04-23T05:53:39.149Z,5.00
2023-04-23T05:56:07.434Z,5.10
2023-04-23T05:58:35.529Z,4.68
2023-04-23T06:01:05.122Z,5.13
2023-04-23T06:03:33.404Z,4.30
2023-04-23T06:06:01.787Z,4.60
2023-04-23T06:08:29.930Z,4.43
2023-04-23T06:10:58.288Z,4.40
2023-04-23T06:13:28.207Z,4.55
2023-04-23T06:15:56.327Z,4.68
2023-04-23T06:18:25.893Z,4.05
2023-04-23T06:20:53.967Z,4.60
2023-04-23T06:23:22.001Z,4.45
2023-04-23T06:25:49.985Z,4.35
2023-04-23T06:28:18.215Z,4.75
2023-04-23T06:30:46.612Z,4.10
2023-04-23T06:33:14.803Z,4.53
2023-04-23T06:35:44.270Z,4.28
2023-04-23T06:38:12.304Z,4.72
2023-04-23T06:40:40.675Z,4.25
2023-04-23T06:43:09.768Z,4.53
2023-04-23T06:45:37.807Z,4.65
2023-04-23T06:48:06.118Z,4.10
2023-04-23T06:50:34.258Z,4.50
2023-04-23T06:53:03.676Z,4.28
2023-04-23T06:55:34.147Z,4.43
2023-04-23T06:58:02.267Z,5.00
2023-04-23T07:00:30.350Z,4.50
2023-04-23T07:02:58.450Z,4.53
2023-04-23T07:05:26.603Z,4.40
2023-04-23T07:07:54.702Z,4.93
2023-04-23T07:10:24.238Z,5.78
2023-04-23T07:12:52.243Z,5.32
2023-04-23T07:15:20.329Z,5.50
2023-04-23T07:17:48.447Z,5.85
2023-04-23T07:20:16.549Z,5.63
2023-04-23T07:22:44.749Z,5.53
2023-04-23T07:25:12.870Z,5.95
2023-04-23T07:27:42.353Z,5.47
2023-04-23T07:30:11.215Z,5.95
2023-04-23T07:32:39.376Z,4.85
2023-04-23T07:35:09.960Z,5.68
2023-04-23T07:37:38.103Z,5.30
2023-04-23T07:40:08.031Z,4.80
2023-04-23T07:42:36.242Z,4.93
2023-04-23T07:45:06.734Z,4.93
2023-04-23T07:47:34.956Z,4.90
2023-04-23T07:50:03.080Z,4.45
2023-04-23T07:52:31.364Z,4.45
2023-04-23T07:54:59.448Z,4.70
2023-04-23T07:57:27.524Z,5.07
2023-04-23T07:59:55.650Z,4.45
2023-04-23T08:02:26.720Z,4.47
2023-04-23T08:04:56.131Z,4.18
2023-04-23T08:07:24.386Z,4.22
2023-04-23T08:09:52.812Z,3.60
2023-04-23T08:12:21.336Z,4.15
2023-04-23T08:14:51.021Z,3.88
2023-04-23T08:17:19.176Z,3.20
2023-04-23T08:19:48.598Z,3.33
2023-04-23T08:22:17.400Z,3.60
2023-04-23T08:24:46.457Z,3.30
2023-04-23T08:27:14.501Z,3.63
2023-04-23T08:29:42.865Z,3.10
2023-04-23T08:32:11.170Z,3.25
2023-04-23T08:34:39.969Z,3.30
2023-04-23T08:37:16.566Z,3.30
2023-04-23T08:39:51.538Z,2.90
2023-04-23T08:42:26.286Z,3.55
2023-04-23T08:44:56.998Z,2.97
2023-04-23T08:47:31.372Z,2.83
2023-04-23T08:50:01.018Z,3.10
2023-04-23T08:52:34.954Z,3.25
2023-04-23T08:55:05.997Z,3.40
2023-04-23T08:57:35.133Z,3.20
2023-04-23T09:00:06.621Z,3.30
2023-04-23T09:02:36.454Z,2.70
2023-04-23T09:05:05.181Z,3.10
2023-04-23T09:07:34.950Z,2.80
2023-04-23T09:10:04.065Z,3.10
2023-04-23T09:12:32.290Z,3.10
2023-04-23T09:15:00.380Z,2.70
2023-04-23T09:17:30.525Z,3.30
2023-04-23T09:19:59.588Z,3.17
2023-04-23T09:22:45.125Z,2.85
2023-04-23T09:25:18.750Z,2.50
2023-04-23T09:27:47.765Z,2.95
2023-04-23T09:30:19.287Z,2.65
2023-04-23T09:32:48.603Z,2.50
2023-04-23T09:35:20.068Z,2.80
2023-04-23T09:37:52.689Z,2.80
2023-04-23T09:40:22.043Z,2.60
2023-04-23T09:42:52.801Z,2.63
2023-04-23T09:45:21.388Z,2.47
2023-04-23T09:47:53.896Z,2.72
2023-04-23T09:50:32.705Z,2.55
2023-04-23T09:53:02.341Z,2.50
2023-04-23T09:55:35.570Z,2.67
2023-04-23T09:58:05.541Z,2.40
2023-04-23T10:00:38.213Z,2.10
2023-04-23T10:03:08.905Z,2.70
2023-04-23T10:05:59.853Z,2.70
2023-04-23T10:08:33.096Z,2.70
2023-04-23T10:11:17.784Z,2.15
2023-04-23T10:13:48.585Z,2.75
2023-04-23T10:16:23.141Z,2.50
2023-04-23T10:18:55.557Z,2.22
2023-04-23T10:21:32.137Z,2.10
2023-04-23T10:24:12.147Z,2.28
2023-04-23T10:26:43.719Z,2.55
2023-04-23T10:29:15.784Z,2.28
2023-04-23T10:31:44.259Z,2.35
2023-04-23T10:34:12.496Z,2.30
2023-04-23T10:36:40.642Z,2.30
2023-04-23T10:39:10.813Z,2.17
2023-04-23T10:41:40.928Z,2.00
2023-04-23T10:44:15.963Z,2.30
2023-04-23T10:46:52.909Z,2.15
2023-04-23T10:49:23.379Z,2.20
2023-04-23T10:52:18.530Z,2.03
2023-04-23T10:54:58.118Z,2.03
2023-04-23T10:57:26.340Z,2.08
2023-04-23T10:59:56.469Z,1.90
2023-04-23T11:02:26.056Z,2.03
2023-04-23T11:04:57.399Z,2.20
2023-04-23T11:07:31.248Z,2.00
2023-04-23T11:10:12.963Z,1.83
2023-04-23T11:12:42.026Z,1.90
2023-04-23T11:15:14.466Z,2.25
2023-04-23T11:18:01.772Z,1.80
2023-04-23T11:20:32.719Z,2.10
2023-04-23T11:23:01.063Z,2.03
2023-04-23T11:25:30.648Z,2.22
2023-04-23T11:27:59.717Z,2.50
2023-04-23T11:30:29.521Z,1.85
2023-04-23T11:33:00.425Z,2.05
2023-04-23T11:35:30.697Z,2.70
2023-04-23T11:37:58.853Z,2.03
2023-04-23T11:40:29.900Z,4.80
2023-04-23T11:42:59.542Z,4.70
2023-04-23T11:45:29.390Z,2.60
2023-04-23T11:47:59.214Z,2.17
2023-04-23T11:50:29.876Z,2.38
2023-04-23T11:52:58.305Z,2.33
2023-04-23T11:55:26.675Z,2.00
2023-04-23T11:57:54.821Z,2.10
2023-04-23T12:00:27.595Z,2.25
2023-04-23T12:02:58.161Z,2.67
2023-04-23T12:05:30.756Z,2.10
2023-04-23T12:08:10.124Z,2.28
2023-04-23T12:10:45.363Z,2.40
2023-04-23T12:13:20.647Z,2.03
2023-04-23T12:15:52.375Z,2.75
2023-04-23T12:18:20.998Z,2.28
2023-04-23T12:20:49.034Z,2.03
2023-04-23T12:23:17.309Z,2.33
2023-04-23T12:25:45.420Z,2.38
2023-04-23T12:28:13.658Z,2.13
2023-04-23T12:30:45.311Z,3.10
2023-04-23T12:33:15.301Z,2.55
2023-04-23T12:35:45.109Z,2.40
2023-04-23T12:38:24.804Z,3.00
2023-04-23T12:40:53.300Z,2.10
2023-04-23T12:43:21.429Z,2.22
2023-04-23T12:45:49.635Z,2.38
2023-04-23T12:48:19.499Z,2.10
2023-04-23T12:50:48.298Z,1.95
2023-04-23T12:53:19.105Z,2.40
2023-04-23T12:55:48.546Z,2.13
2023-04-23T12:58:20.154Z,1.85
2023-04-23T13:00:53.504Z,2.03
2023-04-23T13:03:24.200Z,2.22
2023-04-23T13:05:53.679Z,2.42
2023-04-23T13:08:21.750Z,2.60
2023-04-23T13:10:50.546Z,1.90
2023-04-23T13:13:18.643Z,2.55
2023-04-23T13:15:47.136Z,2.17
2023-04-23T13:18:15.322Z,2.33
2023-04-23T13:20:44.812Z,2.25
2023-04-23T13:23:13.486Z,2.10
2023-04-23T13:25:41.993Z,2.00
2023-04-23T13:28:10.099Z,2.08
2023-04-23T13:30:38.249Z,2.10
2023-04-23T13:33:06.368Z,2.22
2023-04-23T13:35:37.771Z,2.00
2023-04-23T13:38:09.950Z,2.17
2023-04-23T13:43:09.254Z,2.05
2023-04-23T13:45:37.546Z,1.92
2023-04-23T13:48:08.017Z,2.10
2023-04-23T13:50:37.772Z,2.15
2023-04-23T13:53:07.380Z,2.50
2023-04-23T13:55:35.554Z,2.30
2023-04-23T13:58:03.856Z,2.30
2023-04-23T14:00:32.300Z,2.05
2023-04-23T14:03:00.564Z,2.10
2023-04-23T14:05:28.748Z,2.10
2023-04-23T14:07:56.927Z,2.13
2023-04-23T14:10:26.530Z,2.10
2023-04-23T14:12:54.853Z,2.40
2023-04-23T14:15:23.067Z,2.33
2023-04-23T14:17:51.170Z,2.13
2023-04-23T14:20:20.163Z,2.05
2023-04-23T14:22:51.819Z,2.03
2023-04-23T14:25:31.740Z,2.17
2023-04-23T14:28:04.683Z,2.25
2023-04-23T14:30:33.303Z,2.45
2023-04-23T14:33:01.504Z,2.28
2023-04-23T14:35:42.169Z,2.15
2023-04-23T14:38:11.428Z,2.13
2023-04-23T14:40:41.011Z,2.47
2023-04-23T14:45:42.409Z,2.28
2023-04-23T14:48:10.647Z,1.90
2023-04-23T14:50:38.817Z,2.25
2023-04-23T14:53:07.827Z,2.50
2023-04-23T14:55:35.906Z,1.65
2023-04-23T14:58:05.343Z,1.92
2023-04-23T15:00:33.776Z,2.45
2023-04-23T15:03:02.849Z,2.38
2023-04-23T15:05:31.184Z,1.90
2023-04-23T15:07:59.184Z,2.17
2023-04-23T15:10:27.521Z,1.90
2023-04-23T15:13:02.733Z,1.90
2023-04-23T15:15:45.196Z,2.15
2023-04-23T15:18:14.930Z,2.20
2023-04-23T15:20:43.225Z,2.30
2023-04-23T15:23:12.037Z,2.10
2023-04-23T15:25:40.607Z,2.17
2023-04-23T15:28:08.774Z,2.03
2023-04-23T15:30:39.773Z,2.00
2023-04-23T15:33:07.926Z,2.03
2023-04-23T15:35:36.042Z,2.08
2023-04-23T15:38:04.920Z,2.40
2023-04-23T15:40:33.497Z,1.95
2023-04-23T15:43:01.516Z,2.50
2023-04-23T15:45:29.936Z,1.95
2023-04-23T15:47:59.436Z,2.20
2023-04-23T15:50:27.691Z,2.15
2023-04-23T15:52:59.475Z,2.00
2023-04-23T15:55:27.869Z,2.58
2023-04-23T15:57:56.171Z,2.17
2023-04-23T16:00:24.910Z,2.22
2023-04-23T16:02:54.471Z,2.10
2023-04-23T16:05:24.772Z,2.80
2023-04-23T16:07:53.514Z,2.40
2023-04-23T16:10:21.621Z,2.42
2023-04-23T16:12:49.775Z,2.17
2023-04-23T16:15:18.346Z,2.15
2023-04-23T16:17:47.011Z,2.00
2023-04-23T16:20:16.248Z,2.08
2023-04-23T16:22:46.636Z,2.17
2023-04-23T16:25:14.809Z,2.17
2023-04-23T16:27:43.867Z,2.60
2023-04-23T16:30:12.608Z,2.47
2023-04-23T16:32:40.635Z,2.60
2023-04-23T16:35:10.389Z,2.20
2023-04-23T16:37:39.134Z,2.10
2023-04-23T16:40:10.989Z,2.45
2023-04-23T16:42:39.270Z,2.15
2023-04-23T16:45:09.005Z,2.00
2023-04-23T16:47:37.250Z,2.00
2023-04-23T16:50:05.777Z,2.30
2023-04-23T16:52:37.218Z,2.10
2023-04-23T16:55:06.822Z,2.30
2023-04-23T16:57:37.783Z,2.20
2023-04-23T17:00:08.529Z,2.10
2023-04-23T17:02:38.496Z,2.33
2023-04-23T17:05:08.205Z,2.40
2023-04-23T17:07:36.968Z,2.20
2023-04-23T17:10:09.529Z,2.30
2023-04-23T17:15:07.740Z,2.17
2023-04-23T17:17:36.437Z,1.90
2023-04-23T17:20:05.511Z,2.30
2023-04-23T17:22:33.862Z,2.20
2023-04-23T17:25:03.364Z,2.42
2023-04-23T17:27:32.052Z,2.30
2023-04-23T17:30:02.599Z,2.30
2023-04-23T17:32:31.186Z,2.20
2023-04-23T17:35:09.603Z,2.53
2023-04-23T17:37:39.596Z,2.53
2023-04-23T17:40:11.379Z,2.63
2023-04-23T17:42:40.305Z,2.60
2023-04-23T17:45:14.108Z,2.20
2023-04-23T17:47:42.694Z,2.60
2023-04-23T17:50:14.627Z,2.22
2023-04-23T17:52:46.693Z,2.70
2023-04-23T17:55:15.502Z,2.80
2023-04-23T17:57:44.343Z,2.97
2023-04-23T18:00:16.393Z,3.28
2023-04-23T18:02:45.849Z,2.95
2023-04-23T18:05:20.625Z,3.10
2023-04-23T18:07:48.875Z,2.92
2023-04-23T18:10:18.053Z,2.63
2023-04-23T18:12:48.124Z,3.35
2023-04-23T18:15:18.665Z,2.85
2023-04-23T18:17:47.596Z,3.58
2023-04-23T18:20:17.116Z,2.92
2023-04-23T18:22:46.534Z,2.60
2023-04-23T18:25:15.427Z,3.85
2023-04-23T18:27:44.608Z,2.78
2023-04-23T18:30:16.040Z,3.15
2023-04-23T18:32:50.594Z,2.70
2023-04-23T18:35:19.979Z,3.15
2023-04-23T18:37:50.611Z,2.75
2023-04-23T18:40:19.652Z,3.13
2023-04-23T18:42:48.489Z,2.70
2023-04-23T18:45:18.167Z,3.03
2023-04-23T18:47:53.625Z,3.65
2023-04-23T18:50:37.351Z,2.80
2023-04-23T18:53:06.966Z,3.15
2023-04-23T18:55:35.895Z,3.17
2023-04-23T18:58:04.766Z,3.05
2023-04-23T19:00:33.913Z,2.88
2023-04-23T19:03:12.083Z,3.10
2023-04-23T19:05:58.723Z,3.70
2023-04-23T19:08:29.960Z,3.10
2023-04-23T19:10:58.957Z,3.28
2023-04-23T19:13:28.217Z,3.22
2023-04-23T19:15:57.419Z,3.38
2023-04-23T19:18:28.671Z,3.70
2023-04-23T19:20:58.634Z,3.53
2023-04-23T19:23:27.869Z,3.28
2023-04-23T19:25:57.878Z,3.13
2023-04-23T19:28:27.161Z,3.60
2023-04-23T19:30:56.323Z,3.85
2023-04-23T19:33:27.841Z,3.75
2023-04-23T19:35:57.636Z,3.70
2023-04-23T19:38:26.080Z,3.38
2023-04-23T19:40:55.098Z,2.92
2023-04-23T19:43:23.645Z,3.45
2023-04-23T19:45:52.182Z,3.40
2023-04-23T19:48:21.122Z,4.03
2023-04-23T19:50:51.730Z,3.60
2023-04-23T19:53:23.125Z,3.38
2023-04-23T19:55:52.790Z,3.50
2023-04-23T19:58:22.175Z,3.88
2023-04-23T20:00:52.801Z,3.38
2023-04-23T20:03:22.539Z,3.33
2023-04-23T20:05:56.290Z,3.10
2023-04-23T20:08:29.871Z,3.60
2023-04-23T20:10:59.018Z,3.72
2023-04-23T20:13:27.794Z,3.70
2023-04-23T20:15:55.955Z,3.53
2023-04-23T20:18:28.195Z,3.85
2023-04-23T20:20:58.426Z,3.67
2023-04-23T20:23:26.484Z,3.85
2023-04-23T20:25:54.664Z,3.65
2023-04-23T20:28:23.234Z,3.55
2023-04-23T20:30:51.688Z,3.30
2023-04-23T20:33:20.422Z,3.50
2023-04-23T20:35:48.849Z,3.40
2023-04-23T20:38:19.513Z,4.10
2023-04-23T20:40:47.790Z,3.75
2023-04-23T20:43:17.423Z,3.22
2023-04-23T20:45:46.717Z,3.65
2023-04-23T20:48:15.092Z,3.70
2023-04-23T20:50:43.123Z,4.10
2023-04-23T20:53:11.259Z,3.60
2023-04-23T20:55:40.791Z,3.60
2023-04-23T20:58:08.820Z,3.90
2023-04-23T21:00:37.304Z,3.22
2023-04-23T21:03:06.144Z,3.75
2023-04-23T21:05:34.327Z,3.92
2023-04-23T21:08:02.353Z,3.28
2023-04-23T21:10:30.480Z,3.28
2023-04-23T21:13:00.619Z,3.63
2023-04-23T21:15:29.767Z,3.00
2023-04-23T21:17:58.000Z,3.58
2023-04-23T21:20:26.383Z,3.55
2023-04-23T21:22:54.519Z,3.25
2023-04-23T21:25:22.779Z,2.97
2023-04-23T21:27:50.940Z,3.47
2023-04-23T21:30:26.001Z,3.50
2023-04-23T21:32:54.423Z,3.95
2023-04-23T21:35:22.535Z,3.53
2023-04-23T21:37:50.647Z,3.78
2023-04-23T21:40:18.785Z,3.35
2023-04-23T21:42:47.717Z,3.85
2023-04-23T21:45:15.775Z,3.63
2023-04-23T21:47:45.244Z,3.88
2023-04-23T21:50:13.536Z,4.20
2023-04-23T21:52:44.069Z,3.53
2023-04-23T21:55:13.686Z,3.83
2023-04-23T21:57:41.755Z,3.72
2023-04-23T22:00:14.146Z,3.80
2023-04-23T22:02:46.573Z,3.70
2023-04-23T22:05:20.169Z,3.38
2023-04-23T22:07:49.156Z,3.15
2023-04-23T22:10:18.179Z,3.20
2023-04-23T22:12:49.385Z,3.45
2023-04-23T22:15:19.196Z,3.13
2023-04-23T22:17:50.638Z,3.58
2023-04-23T22:20:23.797Z,3.20
2023-04-23T22:22:51.938Z,3.58
2023-04-23T22:25:20.180Z,3.65
2023-04-23T22:27:48.555Z,3.30
2023-04-23T22:30:16.761Z,3.88
2023-04-23T22:32:44.828Z,3.70
2023-04-23T22:35:13.144Z,3.28
2023-04-23T22:37:42.834Z,3.38
2023-04-23T22:40:11.839Z,3.67
2023-04-23T22:42:39.918Z,3.20
2023-04-23T22:45:08.861Z,3.40
2023-04-23T22:47:37.210Z,3.17
2023-04-23T22:50:05.656Z,4.03
2023-04-23T22:52:33.836Z,3.40
2023-04-23T22:55:03.289Z,3.50
2023-04-23T22:57:31.954Z,3.85
2023-04-23T23:00:00.163Z,3.65
2023-04-23T23:02:28.332Z,3.88
2023-04-23T23:04:56.727Z,3.47
2023-04-23T23:07:24.781Z,3.58
2023-04-23T23:09:52.857Z,3.85
2023-04-23T23:12:22.553Z,3.83
2023-04-23T23:14:50.648Z,3.40
2023-04-23T23:17:18.755Z,3.75
2023-04-23T23:19:46.871Z,3.90
2023-04-23T23:22:14.919Z,3.42
2023-04-23T23:24:43.156Z,3.85
2023-04-23T23:27:11.298Z,3.60
2023-04-23T23:29:41.093Z,3.80
2023-04-23T23:32:09.441Z,3.75
2023-04-23T23:34:37.618Z,3.45
2023-04-23T23:37:05.837Z,3.42
2023-04-23T23:39:34.225Z,3.58
2023-04-23T23:42:02.935Z,3.90
2023-04-23T23:44:31.694Z,3.70
2023-04-23T23:47:01.582Z,3.45
2023-04-23T23:49:29.909Z,3.72
2023-04-23T23:51:58.150Z,3.85
2023-04-23T23:54:26.265Z,3.67
2023-04-23T23:56:54.361Z,3.70
2023-04-23T23:59:22.449Z,3.92
